sensor_id;sensor_type;location;lat;lon;timestamp;P1;durP1;ratioP1;P2;durP2;ratioP2
46675;SDS011;32412;51.478;5.694;2024-02-16T00:00:18;9.88;;;4.22;;
46675;SDS011;32412;51.478;5.694;2024-02-16T00:02:44;7.97;;;3.80;;
46675;SDS011;32412;51.478;5.694;2024-02-16T00:05:11;6.85;;;4.05;;
46675;SDS011;32412;51.478;5.694;2024-02-16T00:07:37;5.53;;;3.55;;
46675;SDS011;32412;51.478;5.694;2024-02-16T00:10:04;5.63;;;3.60;;
46675;SDS011;32412;51.478;5.694;2024-02-16T00:12:31;4.85;;;3.53;;
46675;SDS011;32412;51.478;5.694;2024-02-16T00:14:58;7.03;;;3.40;;
46675;SDS011;32412;51.478;5.694;2024-02-16T00:17:24;6.82;;;3.60;;
46675;SDS011;32412;51.478;5.694;2024-02-16T00:19:52;7.05;;;3.58;;
46675;SDS011;32412;51.478;5.694;2024-02-16T00:22:18;7.05;;;3.20;;
46675;SDS011;32412;51.478;5.694;2024-02-16T00:24:44;6.05;;;3.40;;
46675;SDS011;32412;51.478;5.694;2024-02-16T00:27:10;4.95;;;3.58;;
46675;SDS011;32412;51.478;5.694;2024-02-16T00:29:36;6.20;;;3.00;;
46675;SDS011;32412;51.478;5.694;2024-02-16T00:32:04;6.07;;;3.58;;
46675;SDS011;32412;51.478;5.694;2024-02-16T00:34:34;8.90;;;3.65;;
46675;SDS011;32412;51.478;5.694;2024-02-16T00:37:02;7.95;;;3.13;;
46675;SDS011;32412;51.478;5.694;2024-02-16T00:39:36;3.70;;;3.40;;
46675;SDS011;32412;51.478;5.694;2024-02-16T00:42:05;8.60;;;3.60;;
46675;SDS011;32412;51.478;5.694;2024-02-16T00:44:31;7.05;;;4.40;;
46675;SDS011;32412;51.478;5.694;2024-02-16T00:46:57;7.28;;;3.80;;
46675;SDS011;32412;51.478;5.694;2024-02-16T00:49:23;7.47;;;3.25;;
46675;SDS011;32412;51.478;5.694;2024-02-16T00:51:49;4.75;;;3.22;;
46675;SDS011;32412;51.478;5.694;2024-02-16T00:54:16;8.50;;;3.17;;
46675;SDS011;32412;51.478;5.694;2024-02-16T00:56:42;7.05;;;3.20;;
46675;SDS011;32412;51.478;5.694;2024-02-16T01:05:33;6.70;;;3.58;;
46675;SDS011;32412;51.478;5.694;2024-02-16T01:08:00;7.88;;;3.67;;
46675;SDS011;32412;51.478;5.694;2024-02-16T01:10:26;6.53;;;3.85;;
46675;SDS011;32412;51.478;5.694;2024-02-16T01:12:54;6.13;;;3.72;;
46675;SDS011;32412;51.478;5.694;2024-02-16T01:15:21;9.30;;;4.38;;
46675;SDS011;32412;51.478;5.694;2024-02-16T01:17:47;6.47;;;3.88;;
46675;SDS011;32412;51.478;5.694;2024-02-16T01:20:12;7.22;;;3.20;;
46675;SDS011;32412;51.478;5.694;2024-02-16T01:22:39;6.25;;;3.30;;
46675;SDS011;32412;51.478;5.694;2024-02-16T01:25:05;5.00;;;3.30;;
46675;SDS011;32412;51.478;5.694;2024-02-16T01:27:35;6.40;;;3.38;;
46675;SDS011;32412;51.478;5.694;2024-02-16T01:30:06;6.20;;;3.50;;
46675;SDS011;32412;51.478;5.694;2024-02-16T01:32:32;8.82;;;3.05;;
46675;SDS011;32412;51.478;5.694;2024-02-16T01:34:59;4.88;;;2.92;;
46675;SDS011;32412;51.478;5.694;2024-02-16T01:37:25;7.28;;;3.20;;
46675;SDS011;32412;51.478;5.694;2024-02-16T01:39:51;7.53;;;3.70;;
46675;SDS011;32412;51.478;5.694;2024-02-16T01:42:17;7.18;;;3.30;;
46675;SDS011;32412;51.478;5.694;2024-02-16T01:44:43;5.10;;;3.55;;
46675;SDS011;32412;51.478;5.694;2024-02-16T01:47:09;6.82;;;3.65;;
46675;SDS011;32412;51.478;5.694;2024-02-16T01:49:35;5.75;;;3.33;;
46675;SDS011;32412;51.478;5.694;2024-02-16T01:52:00;7.30;;;3.50;;
46675;SDS011;32412;51.478;5.694;2024-02-16T01:54:26;5.13;;;3.20;;
46675;SDS011;32412;51.478;5.694;2024-02-16T01:56:52;4.95;;;3.28;;
46675;SDS011;32412;51.478;5.694;2024-02-16T01:59:19;7.85;;;3.13;;
46675;SDS011;32412;51.478;5.694;2024-02-16T02:01:45;4.70;;;2.90;;
46675;SDS011;32412;51.478;5.694;2024-02-16T02:04:11;5.13;;;3.25;;
46675;SDS011;32412;51.478;5.694;2024-02-16T02:06:36;5.78;;;3.42;;
46675;SDS011;32412;51.478;5.694;2024-02-16T02:09:03;8.63;;;3.97;;
46675;SDS011;32412;51.478;5.694;2024-02-16T02:11:29;5.68;;;3.28;;
46675;SDS011;32412;51.478;5.694;2024-02-16T02:13:55;7.30;;;3.30;;
46675;SDS011;32412;51.478;5.694;2024-02-16T02:16:20;3.92;;;2.83;;
46675;SDS011;32412;51.478;5.694;2024-02-16T02:18:47;5.90;;;3.13;;
46675;SDS011;32412;51.478;5.694;2024-02-16T02:21:12;6.32;;;3.60;;
46675;SDS011;32412;51.478;5.694;2024-02-16T02:23:39;5.75;;;3.60;;
46675;SDS011;32412;51.478;5.694;2024-02-16T02:26:06;6.78;;;3.38;;
46675;SDS011;32412;51.478;5.694;2024-02-16T02:28:32;6.50;;;3.70;;
46675;SDS011;32412;51.478;5.694;2024-02-16T02:30:59;7.63;;;2.88;;
46675;SDS011;32412;51.478;5.694;2024-02-16T02:33:25;12.02;;;3.40;;
46675;SDS011;32412;51.478;5.694;2024-02-16T02:35:51;5.35;;;3.25;;
46675;SDS011;32412;51.478;5.694;2024-02-16T02:38:17;6.05;;;2.90;;
46675;SDS011;32412;51.478;5.694;2024-02-16T02:40:42;6.30;;;3.28;;
46675;SDS011;32412;51.478;5.694;2024-02-16T02:43:08;5.25;;;3.03;;
46675;SDS011;32412;51.478;5.694;2024-02-16T02:45:34;5.85;;;2.67;;
46675;SDS011;32412;51.478;5.694;2024-02-16T02:47:59;6.72;;;3.00;;
46675;SDS011;32412;51.478;5.694;2024-02-16T02:50:25;4.95;;;2.92;;
46675;SDS011;32412;51.478;5.694;2024-02-16T02:52:51;3.30;;;2.70;;
46675;SDS011;32412;51.478;5.694;2024-02-16T02:55:17;5.95;;;3.28;;
46675;SDS011;32412;51.478;5.694;2024-02-16T02:57:43;6.63;;;3.25;;
46675;SDS011;32412;51.478;5.694;2024-02-16T03:00:09;7.82;;;2.83;;
46675;SDS011;32412;51.478;5.694;2024-02-16T03:02:38;7.50;;;3.38;;
46675;SDS011;32412;51.478;5.694;2024-02-16T03:05:04;6.53;;;3.00;;
46675;SDS011;32412;51.478;5.694;2024-02-16T03:07:32;6.55;;;2.58;;
46675;SDS011;32412;51.478;5.694;2024-02-16T03:10:01;6.70;;;3.30;;
46675;SDS011;32412;51.478;5.694;2024-02-16T03:12:28;6.57;;;2.95;;
46675;SDS011;32412;51.478;5.694;2024-02-16T03:14:53;4.43;;;3.10;;
46675;SDS011;32412;51.478;5.694;2024-02-16T03:17:19;5.53;;;3.05;;
46675;SDS011;32412;51.478;5.694;2024-02-16T03:19:45;6.57;;;2.92;;
46675;SDS011;32412;51.478;5.694;2024-02-16T03:22:11;3.55;;;2.92;;
46675;SDS011;32412;51.478;5.694;2024-02-16T03:24:37;4.72;;;3.00;;
46675;SDS011;32412;51.478;5.694;2024-02-16T03:27:03;4.88;;;3.20;;
46675;SDS011;32412;51.478;5.694;2024-02-16T03:29:29;8.02;;;3.25;;
46675;SDS011;32412;51.478;5.694;2024-02-16T03:31:55;5.43;;;2.85;;
46675;SDS011;32412;51.478;5.694;2024-02-16T03:34:21;6.00;;;2.90;;
46675;SDS011;32412;51.478;5.694;2024-02-16T03:36:46;4.25;;;2.95;;
46675;SDS011;32412;51.478;5.694;2024-02-16T03:39:12;7.57;;;3.42;;
46675;SDS011;32412;51.478;5.694;2024-02-16T03:41:38;6.80;;;3.67;;
46675;SDS011;32412;51.478;5.694;2024-02-16T03:44:04;5.85;;;3.03;;
46675;SDS011;32412;51.478;5.694;2024-02-16T03:46:30;4.60;;;3.10;;
46675;SDS011;32412;51.478;5.694;2024-02-16T03:48:56;6.15;;;3.03;;
46675;SDS011;32412;51.478;5.694;2024-02-16T03:51:22;6.18;;;3.05;;
46675;SDS011;32412;51.478;5.694;2024-02-16T03:53:47;3.90;;;2.72;;
46675;SDS011;32412;51.478;5.694;2024-02-16T03:56:22;4.32;;;2.85;;
46675;SDS011;32412;51.478;5.694;2024-02-16T03:58:48;6.35;;;3.40;;
46675;SDS011;32412;51.478;5.694;2024-02-16T04:01:14;5.10;;;3.15;;
46675;SDS011;32412;51.478;5.694;2024-02-16T04:03:39;7.00;;;3.70;;
46675;SDS011;32412;51.478;5.694;2024-02-16T04:06:05;6.20;;;3.90;;
46675;SDS011;32412;51.478;5.694;2024-02-16T04:08:31;6.70;;;3.70;;
46675;SDS011;32412;51.478;5.694;2024-02-16T04:10:56;5.68;;;3.40;;
46675;SDS011;32412;51.478;5.694;2024-02-16T04:13:23;8.23;;;4.20;;
46675;SDS011;32412;51.478;5.694;2024-02-16T04:15:48;7.22;;;3.90;;
46675;SDS011;32412;51.478;5.694;2024-02-16T04:18:16;7.07;;;3.55;;
46675;SDS011;32412;51.478;5.694;2024-02-16T04:20:43;6.05;;;3.28;;
46675;SDS011;32412;51.478;5.694;2024-02-16T04:23:09;5.72;;;3.50;;
46675;SDS011;32412;51.478;5.694;2024-02-16T04:25:35;6.20;;;3.60;;
46675;SDS011;32412;51.478;5.694;2024-02-16T04:28:00;7.35;;;3.33;;
46675;SDS011;32412;51.478;5.694;2024-02-16T04:30:26;7.15;;;3.42;;
46675;SDS011;32412;51.478;5.694;2024-02-16T04:32:52;5.60;;;3.35;;
46675;SDS011;32412;51.478;5.694;2024-02-16T04:35:17;5.68;;;3.40;;
46675;SDS011;32412;51.478;5.694;2024-02-16T04:37:44;4.50;;;3.28;;
46675;SDS011;32412;51.478;5.694;2024-02-16T04:40:09;4.85;;;3.42;;
46675;SDS011;32412;51.478;5.694;2024-02-16T04:42:37;7.93;;;3.88;;
46675;SDS011;32412;51.478;5.694;2024-02-16T04:45:05;6.90;;;3.28;;
46675;SDS011;32412;51.478;5.694;2024-02-16T04:47:31;6.68;;;3.50;;
46675;SDS011;32412;51.478;5.694;2024-02-16T04:49:57;6.10;;;3.60;;
46675;SDS011;32412;51.478;5.694;2024-02-16T04:52:22;6.30;;;3.40;;
46675;SDS011;32412;51.478;5.694;2024-02-16T04:54:48;7.35;;;3.95;;
46675;SDS011;32412;51.478;5.694;2024-02-16T04:57:14;5.40;;;3.78;;
46675;SDS011;32412;51.478;5.694;2024-02-16T04:59:39;7.05;;;3.85;;
46675;SDS011;32412;51.478;5.694;2024-02-16T05:02:05;7.40;;;3.70;;
46675;SDS011;32412;51.478;5.694;2024-02-16T05:04:32;5.22;;;3.55;;
46675;SDS011;32412;51.478;5.694;2024-02-16T05:06:57;11.68;;;3.67;;
46675;SDS011;32412;51.478;5.694;2024-02-16T05:09:23;6.10;;;3.75;;
46675;SDS011;32412;51.478;5.694;2024-02-16T05:11:51;9.63;;;3.90;;
46675;SDS011;32412;51.478;5.694;2024-02-16T05:14:17;5.22;;;3.60;;
46675;SDS011;32412;51.478;5.694;2024-02-16T05:16:46;7.13;;;3.22;;
46675;SDS011;32412;51.478;5.694;2024-02-16T05:19:12;6.28;;;3.78;;
46675;SDS011;32412;51.478;5.694;2024-02-16T05:21:38;8.10;;;4.13;;
46675;SDS011;32412;51.478;5.694;2024-02-16T05:24:04;7.78;;;3.53;;
46675;SDS011;32412;51.478;5.694;2024-02-16T05:26:30;11.93;;;4.30;;
46675;SDS011;32412;51.478;5.694;2024-02-16T05:28:55;5.88;;;3.42;;
46675;SDS011;32412;51.478;5.694;2024-02-16T05:31:21;6.35;;;3.60;;
46675;SDS011;32412;51.478;5.694;2024-02-16T05:33:50;5.88;;;3.25;;
46675;SDS011;32412;51.478;5.694;2024-02-16T05:36:16;6.78;;;3.55;;
46675;SDS011;32412;51.478;5.694;2024-02-16T05:38:46;6.85;;;3.25;;
46675;SDS011;32412;51.478;5.694;2024-02-16T05:41:12;7.22;;;3.25;;
46675;SDS011;32412;51.478;5.694;2024-02-16T05:43:37;4.93;;;3.25;;
46675;SDS011;32412;51.478;5.694;2024-02-16T05:46:04;7.15;;;3.55;;
46675;SDS011;32412;51.478;5.694;2024-02-16T05:48:35;7.15;;;3.47;;
46675;SDS011;32412;51.478;5.694;2024-02-16T05:51:05;5.25;;;3.17;;
46675;SDS011;32412;51.478;5.694;2024-02-16T05:53:31;4.97;;;3.10;;
46675;SDS011;32412;51.478;5.694;2024-02-16T05:55:58;3.65;;;2.92;;
46675;SDS011;32412;51.478;5.694;2024-02-16T05:58:24;6.63;;;3.80;;
46675;SDS011;32412;51.478;5.694;2024-02-16T06:00:50;6.57;;;3.42;;
46675;SDS011;32412;51.478;5.694;2024-02-16T06:03:15;7.82;;;3.35;;
46675;SDS011;32412;51.478;5.694;2024-02-16T06:05:41;4.43;;;3.33;;
46675;SDS011;32412;51.478;5.694;2024-02-16T06:08:09;7.63;;;3.28;;
46675;SDS011;32412;51.478;5.694;2024-02-16T06:10:35;4.43;;;3.40;;
46675;SDS011;32412;51.478;5.694;2024-02-16T06:13:01;5.90;;;3.17;;
46675;SDS011;32412;51.478;5.694;2024-02-16T06:15:27;5.95;;;2.80;;
46675;SDS011;32412;51.478;5.694;2024-02-16T06:17:53;4.85;;;3.17;;
46675;SDS011;32412;51.478;5.694;2024-02-16T06:20:19;5.50;;;3.30;;
46675;SDS011;32412;51.478;5.694;2024-02-16T06:22:45;5.82;;;3.17;;
46675;SDS011;32412;51.478;5.694;2024-02-16T06:25:10;5.10;;;3.80;;
46675;SDS011;32412;51.478;5.694;2024-02-16T06:27:36;7.82;;;3.78;;
46675;SDS011;32412;51.478;5.694;2024-02-16T06:30:02;7.35;;;3.92;;
46675;SDS011;32412;51.478;5.694;2024-02-16T06:32:32;9.00;;;3.20;;
46675;SDS011;32412;51.478;5.694;2024-02-16T06:34:58;8.55;;;3.65;;
46675;SDS011;32412;51.478;5.694;2024-02-16T06:37:24;8.77;;;3.35;;
46675;SDS011;32412;51.478;5.694;2024-02-16T06:39:49;6.82;;;2.80;;
46675;SDS011;32412;51.478;5.694;2024-02-16T06:42:15;8.73;;;2.88;;
46675;SDS011;32412;51.478;5.694;2024-02-16T06:44:41;7.60;;;3.17;;
46675;SDS011;32412;51.478;5.694;2024-02-16T06:47:07;5.70;;;2.85;;
46675;SDS011;32412;51.478;5.694;2024-02-16T06:49:32;4.97;;;3.25;;
46675;SDS011;32412;51.478;5.694;2024-02-16T06:51:58;6.00;;;2.75;;
46675;SDS011;32412;51.478;5.694;2024-02-16T06:54:24;5.38;;;2.53;;
46675;SDS011;32412;51.478;5.694;2024-02-16T06:56:50;6.35;;;2.67;;
46675;SDS011;32412;51.478;5.694;2024-02-16T06:59:18;5.57;;;2.58;;
46675;SDS011;32412;51.478;5.694;2024-02-16T07:01:44;4.18;;;2.65;;
46675;SDS011;32412;51.478;5.694;2024-02-16T07:04:10;7.05;;;2.28;;
46675;SDS011;32412;51.478;5.694;2024-02-16T07:06:36;6.20;;;2.75;;
46675;SDS011;32412;51.478;5.694;2024-02-16T07:09:01;9.93;;;2.38;;
46675;SDS011;32412;51.478;5.694;2024-02-16T07:11:27;5.25;;;2.97;;
46675;SDS011;32412;51.478;5.694;2024-02-16T07:13:53;4.03;;;2.55;;
46675;SDS011;32412;51.478;5.694;2024-02-16T07:16:19;4.18;;;2.60;;
46675;SDS011;32412;51.478;5.694;2024-02-16T07:18:45;4.43;;;2.58;;
46675;SDS011;32412;51.478;5.694;2024-02-16T07:21:14;3.72;;;2.13;;
46675;SDS011;32412;51.478;5.694;2024-02-16T07:23:39;5.45;;;2.45;;
46675;SDS011;32412;51.478;5.694;2024-02-16T07:26:05;4.85;;;2.50;;
46675;SDS011;32412;51.478;5.694;2024-02-16T07:28:32;4.47;;;2.30;;
46675;SDS011;32412;51.478;5.694;2024-02-16T07:30:58;7.28;;;2.65;;
46675;SDS011;32412;51.478;5.694;2024-02-16T07:33:24;5.45;;;2.35;;
46675;SDS011;32412;51.478;5.694;2024-02-16T07:35:50;7.03;;;2.83;;
46675;SDS011;32412;51.478;5.694;2024-02-16T07:38:17;6.20;;;2.40;;
46675;SDS011;32412;51.478;5.694;2024-02-16T07:40:43;6.50;;;2.63;;
46675;SDS011;32412;51.478;5.694;2024-02-16T07:43:10;5.82;;;2.70;;
46675;SDS011;32412;51.478;5.694;2024-02-16T07:45:36;7.97;;;2.63;;
46675;SDS011;32412;51.478;5.694;2024-02-16T07:48:02;4.55;;;2.67;;
46675;SDS011;32412;51.478;5.694;2024-02-16T07:50:30;7.20;;;2.65;;
46675;SDS011;32412;51.478;5.694;2024-02-16T07:52:56;3.10;;;2.38;;
46675;SDS011;32412;51.478;5.694;2024-02-16T07:55:21;7.68;;;2.50;;
46675;SDS011;32412;51.478;5.694;2024-02-16T07:57:49;5.18;;;2.33;;
46675;SDS011;32412;51.478;5.694;2024-02-16T08:00:15;5.57;;;2.35;;
46675;SDS011;32412;51.478;5.694;2024-02-16T08:02:41;6.60;;;2.72;;
46675;SDS011;32412;51.478;5.694;2024-02-16T08:05:10;6.53;;;2.40;;
46675;SDS011;32412;51.478;5.694;2024-02-16T08:07:41;7.80;;;3.08;;
46675;SDS011;32412;51.478;5.694;2024-02-16T08:10:07;6.43;;;2.53;;
46675;SDS011;32412;51.478;5.694;2024-02-16T08:12:33;8.50;;;3.10;;
46675;SDS011;32412;51.478;5.694;2024-02-16T08:15:01;5.95;;;2.38;;
46675;SDS011;32412;51.478;5.694;2024-02-16T08:17:28;4.28;;;2.55;;
46675;SDS011;32412;51.478;5.694;2024-02-16T08:19:54;4.95;;;2.60;;
46675;SDS011;32412;51.478;5.694;2024-02-16T08:22:20;6.18;;;2.63;;
46675;SDS011;32412;51.478;5.694;2024-02-16T08:24:47;4.47;;;2.80;;
46675;SDS011;32412;51.478;5.694;2024-02-16T08:27:14;5.85;;;2.75;;
46675;SDS011;32412;51.478;5.694;2024-02-16T08:29:41;8.77;;;3.70;;
46675;SDS011;32412;51.478;5.694;2024-02-16T08:32:07;5.25;;;2.58;;
46675;SDS011;32412;51.478;5.694;2024-02-16T08:34:34;11.07;;;3.10;;
46675;SDS011;32412;51.478;5.694;2024-02-16T08:37:02;5.72;;;2.90;;
46675;SDS011;32412;51.478;5.694;2024-02-16T08:39:28;6.47;;;3.00;;
46675;SDS011;32412;51.478;5.694;2024-02-16T08:41:55;5.43;;;3.28;;
46675;SDS011;32412;51.478;5.694;2024-02-16T08:44:21;7.10;;;2.95;;
46675;SDS011;32412;51.478;5.694;2024-02-16T08:46:46;5.15;;;3.00;;
46675;SDS011;32412;51.478;5.694;2024-02-16T08:49:14;7.93;;;3.03;;
46675;SDS011;32412;51.478;5.694;2024-02-16T08:54:26;5.80;;;2.60;;
46675;SDS011;32412;51.478;5.694;2024-02-16T08:56:55;5.55;;;2.60;;
46675;SDS011;32412;51.478;5.694;2024-02-16T08:59:24;4.03;;;2.70;;
46675;SDS011;32412;51.478;5.694;2024-02-16T09:01:51;5.45;;;2.88;;
46675;SDS011;32412;51.478;5.694;2024-02-16T09:04:18;4.63;;;2.58;;
46675;SDS011;32412;51.478;5.694;2024-02-16T09:06:55;6.80;;;2.80;;
46675;SDS011;32412;51.478;5.694;2024-02-16T09:09:24;5.38;;;2.83;;
46675;SDS011;32412;51.478;5.694;2024-02-16T09:11:50;4.43;;;2.45;;
46675;SDS011;32412;51.478;5.694;2024-02-16T09:14:22;7.00;;;3.67;;
46675;SDS011;32412;51.478;5.694;2024-02-16T09:16:49;8.88;;;3.50;;
46675;SDS011;32412;51.478;5.694;2024-02-16T09:19:18;8.68;;;2.70;;
46675;SDS011;32412;51.478;5.694;2024-02-16T09:21:48;8.27;;;2.85;;
46675;SDS011;32412;51.478;5.694;2024-02-16T09:24:14;3.90;;;2.70;;
46675;SDS011;32412;51.478;5.694;2024-02-16T09:26:43;6.15;;;2.90;;
46675;SDS011;32412;51.478;5.694;2024-02-16T09:29:11;6.22;;;3.33;;
46675;SDS011;32412;51.478;5.694;2024-02-16T09:31:42;5.50;;;2.78;;
46675;SDS011;32412;51.478;5.694;2024-02-16T09:34:16;7.18;;;2.97;;
46675;SDS011;32412;51.478;5.694;2024-02-16T09:36:44;6.47;;;2.80;;
46675;SDS011;32412;51.478;5.694;2024-02-16T09:39:10;4.80;;;2.90;;
46675;SDS011;32412;51.478;5.694;2024-02-16T09:41:35;5.13;;;2.88;;
46675;SDS011;32412;51.478;5.694;2024-02-16T09:44:02;5.82;;;2.95;;
46675;SDS011;32412;51.478;5.694;2024-02-16T09:46:29;6.45;;;2.88;;
46675;SDS011;32412;51.478;5.694;2024-02-16T09:48:56;5.50;;;2.97;;
46675;SDS011;32412;51.478;5.694;2024-02-16T09:51:24;4.75;;;2.85;;
46675;SDS011;32412;51.478;5.694;2024-02-16T09:53:50;8.27;;;3.30;;
46675;SDS011;32412;51.478;5.694;2024-02-16T09:56:17;6.07;;;3.38;;
46675;SDS011;32412;51.478;5.694;2024-02-16T09:58:43;5.78;;;3.60;;
46675;SDS011;32412;51.478;5.694;2024-02-16T10:01:16;8.48;;;3.42;;
46675;SDS011;32412;51.478;5.694;2024-02-16T10:03:46;8.25;;;3.83;;
46675;SDS011;32412;51.478;5.694;2024-02-16T10:06:12;5.32;;;3.65;;
46675;SDS011;32412;51.478;5.694;2024-02-16T10:08:53;9.10;;;3.92;;
46675;SDS011;32412;51.478;5.694;2024-02-16T10:11:21;11.35;;;3.70;;
46675;SDS011;32412;51.478;5.694;2024-02-16T10:16:24;7.93;;;3.67;;
46675;SDS011;32412;51.478;5.694;2024-02-16T10:18:50;8.93;;;4.07;;
46675;SDS011;32412;51.478;5.694;2024-02-16T10:21:26;8.27;;;4.50;;
46675;SDS011;32412;51.478;5.694;2024-02-16T10:26:24;6.88;;;4.57;;
46675;SDS011;32412;51.478;5.694;2024-02-16T10:28:51;10.45;;;4.55;;
46675;SDS011;32412;51.478;5.694;2024-02-16T10:31:22;13.68;;;4.10;;
46675;SDS011;32412;51.478;5.694;2024-02-16T10:33:54;11.98;;;4.20;;
46675;SDS011;32412;51.478;5.694;2024-02-16T10:36:26;6.90;;;4.65;;
46675;SDS011;32412;51.478;5.694;2024-02-16T10:38:53;9.00;;;4.22;;
46675;SDS011;32412;51.478;5.694;2024-02-16T10:41:21;11.55;;;4.43;;
46675;SDS011;32412;51.478;5.694;2024-02-16T10:44:07;8.82;;;4.22;;
46675;SDS011;32412;51.478;5.694;2024-02-16T10:46:34;10.60;;;4.88;;
46675;SDS011;32412;51.478;5.694;2024-02-16T10:49:00;9.52;;;4.82;;
46675;SDS011;32412;51.478;5.694;2024-02-16T10:51:30;8.98;;;4.80;;
46675;SDS011;32412;51.478;5.694;2024-02-16T10:54:00;9.27;;;4.80;;
46675;SDS011;32412;51.478;5.694;2024-02-16T10:56:34;11.27;;;5.20;;
46675;SDS011;32412;51.478;5.694;2024-02-16T10:59:01;10.68;;;4.55;;
46675;SDS011;32412;51.478;5.694;2024-02-16T11:01:27;11.63;;;4.93;;
46675;SDS011;32412;51.478;5.694;2024-02-16T11:04:00;10.07;;;5.60;;
46675;SDS011;32412;51.478;5.694;2024-02-16T11:06:28;9.75;;;5.15;;
46675;SDS011;32412;51.478;5.694;2024-02-16T11:08:54;11.88;;;6.35;;
46675;SDS011;32412;51.478;5.694;2024-02-16T11:11:25;11.30;;;5.32;;
46675;SDS011;32412;51.478;5.694;2024-02-16T11:13:54;12.88;;;6.30;;
46675;SDS011;32412;51.478;5.694;2024-02-16T11:16:21;11.88;;;5.40;;
46675;SDS011;32412;51.478;5.694;2024-02-16T11:18:47;11.70;;;5.90;;
46675;SDS011;32412;51.478;5.694;2024-02-16T11:21:14;13.18;;;5.70;;
46675;SDS011;32412;51.478;5.694;2024-02-16T11:23:41;14.45;;;6.35;;
46675;SDS011;32412;51.478;5.694;2024-02-16T11:26:10;17.90;;;6.40;;
46675;SDS011;32412;51.478;5.694;2024-02-16T11:28:42;11.93;;;6.63;;
46675;SDS011;32412;51.478;5.694;2024-02-16T11:31:08;16.38;;;6.13;;
46675;SDS011;32412;51.478;5.694;2024-02-16T11:33:34;13.80;;;5.95;;
46675;SDS011;32412;51.478;5.694;2024-02-16T11:36:01;10.50;;;6.25;;
46675;SDS011;32412;51.478;5.694;2024-02-16T11:38:30;12.63;;;6.22;;
46675;SDS011;32412;51.478;5.694;2024-02-16T11:41:02;15.85;;;6.28;;
46675;SDS011;32412;51.478;5.694;2024-02-16T11:43:29;11.95;;;6.50;;
46675;SDS011;32412;51.478;5.694;2024-02-16T11:45:56;10.85;;;5.95;;
46675;SDS011;32412;51.478;5.694;2024-02-16T11:48:22;17.00;;;6.60;;
46675;SDS011;32412;51.478;5.694;2024-02-16T11:51:00;12.80;;;6.38;;
46675;SDS011;32412;51.478;5.694;2024-02-16T11:53:27;12.80;;;6.65;;
46675;SDS011;32412;51.478;5.694;2024-02-16T11:55:53;14.63;;;6.78;;
46675;SDS011;32412;51.478;5.694;2024-02-16T11:58:19;14.00;;;7.05;;
46675;SDS011;32412;51.478;5.694;2024-02-16T12:00:46;14.65;;;7.10;;
46675;SDS011;32412;51.478;5.694;2024-02-16T12:03:17;11.73;;;6.50;;
46675;SDS011;32412;51.478;5.694;2024-02-16T12:05:57;12.75;;;7.07;;
46675;SDS011;32412;51.478;5.694;2024-02-16T12:08:24;13.52;;;7.10;;
46675;SDS011;32412;51.478;5.694;2024-02-16T12:10:57;14.13;;;7.20;;
46675;SDS011;32412;51.478;5.694;2024-02-16T12:13:22;13.38;;;7.57;;
46675;SDS011;32412;51.478;5.694;2024-02-16T12:15:49;16.48;;;8.20;;
46675;SDS011;32412;51.478;5.694;2024-02-16T12:18:20;16.48;;;8.30;;
46675;SDS011;32412;51.478;5.694;2024-02-16T12:20:59;18.33;;;8.03;;
46675;SDS011;32412;51.478;5.694;2024-02-16T12:23:30;19.02;;;8.88;;
46675;SDS011;32412;51.478;5.694;2024-02-16T12:25:57;17.10;;;8.55;;
46675;SDS011;32412;51.478;5.694;2024-02-16T12:28:27;17.42;;;9.20;;
46675;SDS011;32412;51.478;5.694;2024-02-16T12:30:57;16.33;;;8.63;;
46675;SDS011;32412;51.478;5.694;2024-02-16T12:33:23;15.18;;;7.90;;
46675;SDS011;32412;51.478;5.694;2024-02-16T12:35:49;16.00;;;8.30;;
46675;SDS011;32412;51.478;5.694;2024-02-16T12:38:15;20.42;;;9.48;;
46675;SDS011;32412;51.478;5.694;2024-02-16T12:40:44;18.65;;;10.90;;
46675;SDS011;32412;51.478;5.694;2024-02-16T12:43:11;21.73;;;11.13;;
46675;SDS011;32412;51.478;5.694;2024-02-16T12:45:38;17.27;;;11.60;;
46675;SDS011;32412;51.478;5.694;2024-02-16T12:48:04;17.33;;;11.57;;
46675;SDS011;32412;51.478;5.694;2024-02-16T12:50:31;19.20;;;11.93;;
46675;SDS011;32412;51.478;5.694;2024-02-16T12:52:57;21.27;;;12.48;;
46675;SDS011;32412;51.478;5.694;2024-02-16T12:55:23;19.15;;;13.35;;
46675;SDS011;32412;51.478;5.694;2024-02-16T12:57:49;22.35;;;12.85;;
46675;SDS011;32412;51.478;5.694;2024-02-16T13:00:18;24.08;;;13.05;;
46675;SDS011;32412;51.478;5.694;2024-02-16T13:02:44;21.25;;;12.95;;
46675;SDS011;32412;51.478;5.694;2024-02-16T13:05:10;18.00;;;13.07;;
46675;SDS011;32412;51.478;5.694;2024-02-16T13:07:38;19.25;;;13.32;;
46675;SDS011;32412;51.478;5.694;2024-02-16T13:10:06;19.85;;;12.73;;
46675;SDS011;32412;51.478;5.694;2024-02-16T13:12:32;19.40;;;12.80;;
46675;SDS011;32412;51.478;5.694;2024-02-16T13:14:58;18.45;;;13.30;;
46675;SDS011;32412;51.478;5.694;2024-02-16T13:17:24;22.10;;;14.88;;
46675;SDS011;32412;51.478;5.694;2024-02-16T13:19:51;25.85;;;13.77;;
46675;SDS011;32412;51.478;5.694;2024-02-16T13:22:17;26.20;;;14.93;;
46675;SDS011;32412;51.478;5.694;2024-02-16T13:24:43;23.00;;;14.20;;
46675;SDS011;32412;51.478;5.694;2024-02-16T13:27:09;20.92;;;14.23;;
46675;SDS011;32412;51.478;5.694;2024-02-16T13:29:34;19.63;;;14.40;;
46675;SDS011;32412;51.478;5.694;2024-02-16T13:32:00;21.52;;;14.13;;
46675;SDS011;32412;51.478;5.694;2024-02-16T13:34:26;18.23;;;12.38;;
46675;SDS011;32412;51.478;5.694;2024-02-16T13:36:52;17.25;;;12.65;;
46675;SDS011;32412;51.478;5.694;2024-02-16T13:39:18;18.85;;;12.95;;
46675;SDS011;32412;51.478;5.694;2024-02-16T13:41:44;14.93;;;11.32;;
46675;SDS011;32412;51.478;5.694;2024-02-16T13:44:12;15.43;;;10.50;;
46675;SDS011;32412;51.478;5.694;2024-02-16T13:46:38;13.18;;;10.27;;
46675;SDS011;32412;51.478;5.694;2024-02-16T13:49:03;12.75;;;9.90;;
46675;SDS011;32412;51.478;5.694;2024-02-16T13:51:29;16.15;;;11.18;;
46675;SDS011;32412;51.478;5.694;2024-02-16T13:53:55;27.98;;;21.95;;
46675;SDS011;32412;51.478;5.694;2024-02-16T13:56:20;18.55;;;13.98;;
46675;SDS011;32412;51.478;5.694;2024-02-16T13:58:46;15.93;;;11.82;;
46675;SDS011;32412;51.478;5.694;2024-02-16T14:01:12;11.48;;;8.60;;
46675;SDS011;32412;51.478;5.694;2024-02-16T14:03:38;13.32;;;9.15;;
46675;SDS011;32412;51.478;5.694;2024-02-16T14:06:04;13.23;;;10.10;;
46675;SDS011;32412;51.478;5.694;2024-02-16T14:08:32;14.27;;;9.75;;
46675;SDS011;32412;51.478;5.694;2024-02-16T14:10:58;12.02;;;8.85;;
46675;SDS011;32412;51.478;5.694;2024-02-16T14:13:24;8.20;;;6.32;;
46675;SDS011;32412;51.478;5.694;2024-02-16T14:15:50;9.00;;;6.40;;
46675;SDS011;32412;51.478;5.694;2024-02-16T14:18:16;6.90;;;6.10;;
46675;SDS011;32412;51.478;5.694;2024-02-16T14:20:41;9.13;;;6.93;;
46675;SDS011;32412;51.478;5.694;2024-02-16T14:23:07;10.65;;;8.90;;
46675;SDS011;32412;51.478;5.694;2024-02-16T14:25:34;7.47;;;6.57;;
46675;SDS011;32412;51.478;5.694;2024-02-16T14:28:02;6.20;;;4.80;;
46675;SDS011;32412;51.478;5.694;2024-02-16T14:30:28;7.93;;;5.65;;
46675;SDS011;32412;51.478;5.694;2024-02-16T14:32:54;8.00;;;6.30;;
46675;SDS011;32412;51.478;5.694;2024-02-16T14:35:19;7.72;;;6.10;;
46675;SDS011;32412;51.478;5.694;2024-02-16T14:37:47;8.15;;;5.80;;
46675;SDS011;32412;51.478;5.694;2024-02-16T14:40:14;7.82;;;6.40;;
46675;SDS011;32412;51.478;5.694;2024-02-16T14:42:40;7.18;;;5.95;;
46675;SDS011;32412;51.478;5.694;2024-02-16T14:45:07;8.80;;;6.60;;
46675;SDS011;32412;51.478;5.694;2024-02-16T14:47:37;7.82;;;6.25;;
46675;SDS011;32412;51.478;5.694;2024-02-16T14:50:04;16.05;;;7.60;;
46675;SDS011;32412;51.478;5.694;2024-02-16T14:52:32;12.77;;;8.23;;
46675;SDS011;32412;51.478;5.694;2024-02-16T14:54:58;11.88;;;9.02;;